createdAt,value
2022-08-08T00:00:53.526Z,17.92
2022-08-08T00:03:01.543Z,17.88
2022-08-08T00:06:03.496Z,17.86
2022-08-08T00:08:49.227Z,17.84
2022-08-08T00:11:47.147Z,17.77
2022-08-08T00:14:48.078Z,17.67
2022-08-08T00:17:48.278Z,17.66
2022-08-08T00:20:30.023Z,17.56
2022-08-08T00:23:06.301Z,17.49
2022-08-08T00:25:46.261Z,17.48
2022-08-08T00:28:35.665Z,17.43
2022-08-08T00:32:20.809Z,17.37
2022-08-08T00:34:50.035Z,17.34
2022-08-08T00:37:46.847Z,17.24
2022-08-08T00:41:09.360Z,17.20
2022-08-08T00:43:40.335Z,17.23
2022-08-08T00:46:32.095Z,17.27
2022-08-08T00:49:58.593Z,17.21
2022-08-08T00:52:39.043Z,17.18
2022-08-08T00:55:53.938Z,17.11
2022-08-08T00:58:43.647Z,17.13
2022-08-08T01:01:49.574Z,17.09
2022-08-08T01:04:42.260Z,17.07
2022-08-08T01:07:55.740Z,17.03
2022-08-08T01:10:52.335Z,17.00
2022-08-08T01:13:58.616Z,16.97
2022-08-08T01:16:46.605Z,16.91
2022-08-08T01:19:52.594Z,16.87
2022-08-08T01:22:32.457Z,16.81
2022-08-08T01:25:05.230Z,16.72
2022-08-08T01:28:02.668Z,16.72
2022-08-08T01:30:53.667Z,16.72
2022-08-08T01:33:54.108Z,16.65
2022-08-08T01:36:50.764Z,16.60
2022-08-08T01:39:44.879Z,16.61
2022-08-08T01:42:42.095Z,16.53
2022-08-08T01:45:13.926Z,16.48
2022-08-08T01:48:16.885Z,16.45
2022-08-08T01:51:00.380Z,16.40
2022-08-08T01:55:17.135Z,16.38
2022-08-08T01:56:59.873Z,16.37
2022-08-08T02:00:01.925Z,16.39
2022-08-08T02:02:35.134Z,16.37
2022-08-08T02:05:33.945Z,16.30
2022-08-08T02:08:47.312Z,16.28
2022-08-08T02:11:59.074Z,16.24
2022-08-08T02:14:22.221Z,16.19
2022-08-08T02:17:10.749Z,16.15
2022-08-08T02:20:07.327Z,16.12
2022-08-08T02:22:55.345Z,16.06
2022-08-08T02:25:43.540Z,16.03
2022-08-08T02:28:17.951Z,16.10
2022-08-08T02:30:50.180Z,16.04
2022-08-08T02:34:08.499Z,16.03
2022-08-08T02:36:54.770Z,16.04
2022-08-08T02:39:58.473Z,15.99
2022-08-08T02:44:34.692Z,15.95
2022-08-08T02:45:53.989Z,15.94
2022-08-08T02:48:38.522Z,15.92
2022-08-08T02:51:29.767Z,15.94
2022-08-08T02:54:21.093Z,15.93
2022-08-08T02:57:05.127Z,15.90
2022-08-08T03:00:31.756Z,15.90
2022-08-08T03:03:11.191Z,15.82
2022-08-08T03:06:24.183Z,15.76
2022-08-08T03:09:19.802Z,15.69
2022-08-08T03:12:02.891Z,15.72
2022-08-08T03:15:56.776Z,15.71
2022-08-08T03:18:31.496Z,15.71
2022-08-08T03:20:58.272Z,15.71
2022-08-08T03:23:30.296Z,15.69
2022-08-08T03:26:06.369Z,15.63
2022-08-08T03:28:51.110Z,15.56
2022-08-08T03:32:05.958Z,15.53
2022-08-08T03:34:31.181Z,15.53
2022-08-08T03:36:58.160Z,15.43
2022-08-08T03:39:24.913Z,15.36
2022-08-08T03:42:27.938Z,15.41
2022-08-08T03:44:38.642Z,15.41
2022-08-08T03:47:13.975Z,15.42
2022-08-08T03:50:00.893Z,15.43
2022-08-08T03:52:31.577Z,15.39
2022-08-08T03:55:09.502Z,15.32
2022-08-08T03:58:35.414Z,15.27
2022-08-08T04:00:27.759Z,15.28
2022-08-08T04:03:00.375Z,15.33
2022-08-08T04:05:30.365Z,15.38
2022-08-08T04:07:58.405Z,15.26
2022-08-08T04:10:31.908Z,15.23
2022-08-08T04:13:00.107Z,15.27
2022-08-08T04:15:38.446Z,15.27
2022-08-08T04:18:06.236Z,15.24
2022-08-08T04:20:36.268Z,15.25
2022-08-08T04:23:07.735Z,15.28
2022-08-08T04:25:38.338Z,15.24
2022-08-08T04:28:36.716Z,15.26
2022-08-08T04:30:57.684Z,15.31
2022-08-08T04:33:24.592Z,15.32
2022-08-08T04:35:53.855Z,15.39
2022-08-08T04:38:22.993Z,15.46
2022-08-08T04:40:53.408Z,15.52
2022-08-08T04:43:22.207Z,15.50
2022-08-08T04:45:50.275Z,15.51
2022-08-08T04:48:22.071Z,15.54
2022-08-08T04:50:49.018Z,15.54
2022-08-08T04:54:26.819Z,15.58
2022-08-08T04:56:04.404Z,15.62
2022-08-08T04:58:31.309Z,15.59
2022-08-08T05:01:00.000Z,15.63
2022-08-08T05:04:10.101Z,15.66
2022-08-08T05:06:25.689Z,15.72
2022-08-08T05:08:54.877Z,15.80
2022-08-08T05:11:24.679Z,15.85
2022-08-08T05:13:57.492Z,15.88
2022-08-08T05:16:53.188Z,15.92
2022-08-08T05:20:09.786Z,15.95
2022-08-08T05:22:02.290Z,16.03
2022-08-08T05:24:30.927Z,16.12
2022-08-08T05:26:57.821Z,16.21
2022-08-08T05:29:29.101Z,16.40
2022-08-08T05:32:03.924Z,16.51
2022-08-08T05:34:46.832Z,16.55
2022-08-08T05:37:19.152Z,16.61
2022-08-08T05:39:49.250Z,16.65
2022-08-08T05:42:16.133Z,16.72
2022-08-08T05:44:49.180Z,16.73
2022-08-08T05:47:21.415Z,16.83
2022-08-08T05:49:55.845Z,16.93
2022-08-08T05:52:32.050Z,16.83
2022-08-08T05:55:08.905Z,16.76
2022-08-08T05:58:04.759Z,16.74
2022-08-08T06:00:27.693Z,16.86
2022-08-08T06:03:17.311Z,16.96
2022-08-08T06:05:58.914Z,17.05
2022-08-08T06:08:34.876Z,17.03
2022-08-08T06:11:03.131Z,17.12
2022-08-08T06:13:36.366Z,17.30
2022-08-08T06:16:14.110Z,17.40
2022-08-08T06:18:41.715Z,17.35
2022-08-08T06:21:11.575Z,17.32
2022-08-08T06:24:03.638Z,17.34
2022-08-08T06:26:45.603Z,17.41
2022-08-08T06:29:59.406Z,17.55
2022-08-08T06:32:30.205Z,17.86
2022-08-08T06:36:04.525Z,17.91
2022-08-08T06:38:00.034Z,17.94
2022-08-08T06:40:36.973Z,17.88
2022-08-08T06:43:09.519Z,17.88
2022-08-08T06:45:39.630Z,17.90
2022-08-08T06:48:08.604Z,17.89
2022-08-08T06:50:38.577Z,18.02
2022-08-08T06:53:14.117Z,17.97
2022-08-08T06:55:47.226Z,18.11
2022-08-08T06:58:30.929Z,18.13
2022-08-08T07:01:52.768Z,18.26
2022-08-08T07:04:35.034Z,18.35
2022-08-08T07:06:42.615Z,18.57
2022-08-08T07:09:21.118Z,18.69
2022-08-08T07:11:52.976Z,18.81
2022-08-08T07:14:43.135Z,18.77
2022-08-08T07:17:24.642Z,18.75
2022-08-08T07:20:11.177Z,18.79
2022-08-08T07:23:02.356Z,18.91
2022-08-08T07:25:34.882Z,19.01
2022-08-08T07:28:22.643Z,19.20
2022-08-08T07:30:50.057Z,19.30
2022-08-08T07:33:17.709Z,19.24
2022-08-08T07:35:47.274Z,19.20
2022-08-08T07:38:20.321Z,19.24
2022-08-08T07:40:49.121Z,19.29
2022-08-08T07:43:23.222Z,19.40
2022-08-08T07:46:17.542Z,19.50
2022-08-08T07:48:50.830Z,19.58
2022-08-08T07:51:23.840Z,19.71
2022-08-08T07:54:33.100Z,19.74
2022-08-08T07:57:22.485Z,19.83
2022-08-08T08:00:25.175Z,19.87
2022-08-08T08:03:00.074Z,19.83
2022-08-08T08:05:33.596Z,19.87
2022-08-08T08:08:26.480Z,20.01
2022-08-08T08:10:57.172Z,20.06
2022-08-08T08:14:07.537Z,20.15
2022-08-08T08:16:39.779Z,20.28
2022-08-08T08:19:12.768Z,20.48
2022-08-08T08:21:52.298Z,20.52
2022-08-08T08:24:30.678Z,20.56
2022-08-08T08:26:59.295Z,20.66
2022-08-08T08:29:27.965Z,20.71
2022-08-08T08:31:57.552Z,20.74
2022-08-08T08:34:31.656Z,20.72
2022-08-08T08:36:59.485Z,20.76
2022-08-08T08:39:59.403Z,20.75
2022-08-08T08:42:28.932Z,20.78
2022-08-08T08:44:58.474Z,20.84
2022-08-08T08:47:27.123Z,20.97
2022-08-08T08:50:32.861Z,20.97
2022-08-08T08:53:27.170Z,21.08
2022-08-08T08:56:01.832Z,21.13
2022-08-08T08:58:37.766Z,21.16
2022-08-08T09:01:09.715Z,21.22
2022-08-08T09:03:47.851Z,21.36
2022-08-08T09:06:28.572Z,21.43
2022-08-08T09:09:04.661Z,21.48
2022-08-08T09:11:47.679Z,21.60
2022-08-08T09:14:25.839Z,21.69
2022-08-08T09:16:54.323Z,21.71
2022-08-08T09:21:58.405Z,21.66
2022-08-08T09:22:11.081Z,21.76
2022-08-08T09:24:40.154Z,21.79
2022-08-08T09:27:20.129Z,21.94
2022-08-08T09:29:56.946Z,22.12
2022-08-08T09:32:39.714Z,22.11
2022-08-08T09:35:31.816Z,22.04
2022-08-08T09:38:04.214Z,21.95
2022-08-08T09:40:47.598Z,22.00
2022-08-08T09:44:04.181Z,22.07
2022-08-08T09:46:31.272Z,22.18
2022-08-08T09:49:18.190Z,22.23
2022-08-08T09:52:07.127Z,22.21
2022-08-08T09:54:44.039Z,22.31
2022-08-08T09:57:16.213Z,22.47
2022-08-08T09:59:57.153Z,22.47
2022-08-08T10:02:36.519Z,22.45
2022-08-08T10:05:31.283Z,22.49
2022-08-08T10:08:01.049Z,22.57
2022-08-08T10:10:36.812Z,22.60
2022-08-08T10:13:35.424Z,22.51
2022-08-08T10:16:03.953Z,22.36
2022-08-08T10:18:32.843Z,22.45
2022-08-08T10:21:24.711Z,22.47
2022-08-08T10:23:58.669Z,22.49
2022-08-08T10:26:56.633Z,22.59
2022-08-08T10:29:59.955Z,22.80
2022-08-08T10:32:38.305Z,22.81
2022-08-08T10:35:11.634Z,22.81
2022-08-08T10:37:39.021Z,22.75
2022-08-08T10:40:16.812Z,22.77
2022-08-08T10:42:45.256Z,22.89
2022-08-08T10:45:15.781Z,22.87
2022-08-08T10:47:48.452Z,22.81
2022-08-08T10:50:23.668Z,22.97
2022-08-08T10:52:51.418Z,23.02
2022-08-08T10:55:41.567Z,22.91
2022-08-08T10:58:09.148Z,22.94
2022-08-08T11:00:54.291Z,23.03
2022-08-08T11:04:00.826Z,23.09
2022-08-08T11:06:34.171Z,23.14
2022-08-08T11:09:15.572Z,23.18
2022-08-08T11:12:05.658Z,23.05
2022-08-08T11:14:34.759Z,23.02
2022-08-08T11:17:03.883Z,23.08
2022-08-08T11:19:34.027Z,23.31
2022-08-08T11:22:03.922Z,23.41
2022-08-08T11:24:35.802Z,23.46
2022-08-08T11:27:19.285Z,23.49
2022-08-08T11:30:04.458Z,23.42
2022-08-08T11:32:39.130Z,23.39
2022-08-08T11:35:29.501Z,23.42
2022-08-08T11:38:36.837Z,23.39
2022-08-08T11:40:42.891Z,23.40
2022-08-08T11:43:16.410Z,23.48
2022-08-08T11:46:09.066Z,23.62
2022-08-08T11:48:32.990Z,23.71
2022-08-08T11:51:00.859Z,23.76
2022-08-08T11:53:51.638Z,23.68
2022-08-08T11:56:26.174Z,23.74
2022-08-08T11:58:55.759Z,23.76
2022-08-08T12:01:32.647Z,23.81
2022-08-08T12:04:04.166Z,23.69
2022-08-08T12:06:32.806Z,23.69
2022-08-08T12:09:09.318Z,23.61
2022-08-08T12:11:41.469Z,23.52
2022-08-08T12:14:11.749Z,23.61
2022-08-08T12:16:49.382Z,23.68
2022-08-08T12:19:31.028Z,23.71
2022-08-08T12:22:08.841Z,24.08
2022-08-08T12:24:53.754Z,24.11
2022-08-08T12:27:26.571Z,24.03
2022-08-08T12:29:56.743Z,24.06
2022-08-08T12:32:23.797Z,24.02
2022-08-08T12:35:04.359Z,24.04
2022-08-08T12:37:41.444Z,24.00
2022-08-08T12:40:22.423Z,24.00
2022-08-08T12:42:50.262Z,24.06
2022-08-08T12:45:54.220Z,24.18
2022-08-08T12:48:10.136Z,24.19
2022-08-08T12:50:57.457Z,24.18
2022-08-08T12:53:35.264Z,24.27
2022-08-08T12:56:19.216Z,24.31
2022-08-08T12:58:54.283Z,24.31
2022-08-08T13:01:36.267Z,24.27
2022-08-08T13:04:18.763Z,24.51
2022-08-08T13:06:53.504Z,24.63
2022-08-08T13:10:05.621Z,24.68
2022-08-08T13:12:47.119Z,24.62
2022-08-08T13:15:17.117Z,24.68
2022-08-08T13:18:08.406Z,24.79
2022-08-08T13:20:34.146Z,24.87
2022-08-08T13:23:30.866Z,24.96
2022-08-08T13:25:51.165Z,24.96
2022-08-08T13:28:32.030Z,25.02
2022-08-08T13:31:03.972Z,25.24
2022-08-08T13:33:42.587Z,25.46
2022-08-08T13:36:10.853Z,25.52
2022-08-08T13:38:38.486Z,25.43
2022-08-08T13:41:07.341Z,25.54
2022-08-08T13:43:46.619Z,25.51
2022-08-08T13:46:26.616Z,25.61
2022-08-08T13:50:32.267Z,25.83
2022-08-08T13:51:56.156Z,25.86
2022-08-08T13:54:31.211Z,25.82
2022-08-08T13:57:13.149Z,25.92
2022-08-08T13:59:49.693Z,25.99
2022-08-08T14:02:31.037Z,26.03
2022-08-08T14:05:19.861Z,26.14
2022-08-08T14:07:49.872Z,26.30
2022-08-08T14:10:33.066Z,26.26
2022-08-08T14:13:09.943Z,26.60
2022-08-08T14:16:03.798Z,26.96
2022-08-08T14:18:35.789Z,27.18
2022-08-08T14:21:20.545Z,27.18
2022-08-08T14:24:04.752Z,26.84
2022-08-08T14:26:45.898Z,26.65
2022-08-08T14:29:28.915Z,26.74
2022-08-08T14:32:11.488Z,26.99
2022-08-08T14:34:42.367Z,26.99
2022-08-08T14:37:10.159Z,27.03
2022-08-08T14:40:20.754Z,27.11
2022-08-08T14:42:56.654Z,27.36
2022-08-08T14:45:33.360Z,27.49
2022-08-08T14:48:12.913Z,27.20
2022-08-08T14:50:43.264Z,27.24
2022-08-08T14:53:14.255Z,27.22
2022-08-08T14:55:43.213Z,27.52
2022-08-08T14:58:11.719Z,27.60
2022-08-08T15:00:44.223Z,27.90
2022-08-08T15:03:16.298Z,27.97
2022-08-08T15:05:54.114Z,28.42
2022-08-08T15:08:34.747Z,28.39
2022-08-08T15:11:10.453Z,28.18
2022-08-08T15:14:01.441Z,28.63
2022-08-08T15:16:27.775Z,28.97
2022-08-08T15:18:54.909Z,28.41
2022-08-08T15:21:21.508Z,27.81
2022-08-08T15:23:50.977Z,27.07
2022-08-08T15:26:20.405Z,26.58
2022-08-08T15:28:52.998Z,26.37
2022-08-08T15:31:55.731Z,26.05
2022-08-08T15:34:08.532Z,25.84
2022-08-08T15:36:47.686Z,25.62
2022-08-08T15:39:14.976Z,25.47
2022-08-08T15:41:44.086Z,25.27
2022-08-08T15:44:13.883Z,25.25
2022-08-08T15:46:50.606Z,25.15
2022-08-08T15:49:20.610Z,25.13
2022-08-08T15:51:49.960Z,25.05
2022-08-08T15:54:37.631Z,25.08
2022-08-08T15:57:04.398Z,25.18
2022-08-08T16:00:25.463Z,25.16
2022-08-08T16:02:21.524Z,25.04
2022-08-08T16:04:53.467Z,24.91
2022-08-08T16:07:21.476Z,24.83
2022-08-08T16:13:09.724Z,24.72
2022-08-08T16:13:10.581Z,24.78
2022-08-08T16:15:21.339Z,24.77
2022-08-08T16:18:06.218Z,24.75
2022-08-08T16:20:36.434Z,24.75
2022-08-08T16:23:05.701Z,24.73
2022-08-08T16:25:52.447Z,24.67
2022-08-08T16:28:22.897Z,24.74
2022-08-08T16:31:06.427Z,24.69
2022-08-08T16:33:38.626Z,24.66
2022-08-08T16:36:05.853Z,24.58
2022-08-08T16:38:44.567Z,24.61
2022-08-08T16:41:18.458Z,24.64
2022-08-08T16:43:50.639Z,24.57
2022-08-08T16:46:43.499Z,24.58
2022-08-08T16:49:06.171Z,24.57
2022-08-08T16:55:01.632Z,24.56
2022-08-08T16:55:01.955Z,24.64
2022-08-08T16:57:23.008Z,24.72
2022-08-08T16:59:59.034Z,24.53
2022-08-08T17:02:42.977Z,24.48
2022-08-08T17:05:12.915Z,24.50
2022-08-08T17:07:41.981Z,24.57
2022-08-08T17:10:10.065Z,24.53
2022-08-08T17:12:38.277Z,24.30
2022-08-08T17:15:17.672Z,24.18
2022-08-08T17:18:02.206Z,24.15
2022-08-08T17:20:32.833Z,24.09
2022-08-08T17:23:18.217Z,24.10
2022-08-08T17:25:53.891Z,23.97
2022-08-08T17:28:34.439Z,23.95
2022-08-08T17:31:39.184Z,23.91
2022-08-08T17:34:48.506Z,24.05
2022-08-08T17:37:00.208Z,24.08
2022-08-08T17:40:04.266Z,24.09
2022-08-08T17:42:17.971Z,24.10
2022-08-08T17:44:45.146Z,24.10
2022-08-08T17:47:23.188Z,24.09
2022-08-08T17:49:51.658Z,24.06
2022-08-08T17:52:19.631Z,24.02
2022-08-08T17:54:46.555Z,23.98
2022-08-08T17:57:18.687Z,23.95
2022-08-08T17:59:45.839Z,23.91
2022-08-08T18:02:18.815Z,23.87
2022-08-08T18:04:50.753Z,23.82
2022-08-08T18:08:03.330Z,23.81
2022-08-08T18:10:07.354Z,23.78
2022-08-08T18:12:34.068Z,23.80
2022-08-08T18:15:01.787Z,23.79
2022-08-08T18:18:09.466Z,23.77
2022-08-08T18:20:36.647Z,23.73
2022-08-08T18:23:01.588Z,23.70
2022-08-08T18:25:28.576Z,23.64
2022-08-08T18:28:04.811Z,23.63
2022-08-08T18:30:33.117Z,23.60
2022-08-08T18:33:00.160Z,23.58
2022-08-08T18:35:34.077Z,23.52
2022-08-08T18:38:16.981Z,23.51
2022-08-08T18:40:46.097Z,23.41
2022-08-08T18:43:16.140Z,23.39
2022-08-08T18:46:00.485Z,23.39
2022-08-08T18:48:30.788Z,23.32
2022-08-08T18:50:58.322Z,23.25
2022-08-08T18:53:25.614Z,23.23
2022-08-08T18:56:26.474Z,23.14
2022-08-08T18:58:53.658Z,23.09
2022-08-08T19:02:25.239Z,23.06
2022-08-08T19:04:10.819Z,23.03
2022-08-08T19:06:38.986Z,23.03
2022-08-08T19:09:13.264Z,23.02
2022-08-08T19:11:46.606Z,22.94
2022-08-08T19:14:20.666Z,22.93
2022-08-08T19:16:47.866Z,22.88
2022-08-08T19:19:15.333Z,22.87
2022-08-08T19:21:49.219Z,22.79
2022-08-08T19:24:34.161Z,22.76
2022-08-08T19:27:04.357Z,22.71
2022-08-08T19:29:40.818Z,22.71
2022-08-08T19:32:19.511Z,22.68
2022-08-08T19:34:51.416Z,22.66
2022-08-08T19:37:18.424Z,22.62
2022-08-08T19:40:07.221Z,22.54
2022-08-08T19:42:34.219Z,22.49
2022-08-08T19:45:07.167Z,22.46
2022-08-08T19:47:34.279Z,22.45
2022-08-08T19:50:03.746Z,22.39
2022-08-08T19:52:37.032Z,22.33
2022-08-08T19:55:09.423Z,22.30
2022-08-08T19:57:38.131Z,22.26
2022-08-08T20:00:11.422Z,22.17
2022-08-08T20:02:56.244Z,22.16
2022-08-08T20:06:15.016Z,22.08
2022-08-08T20:08:37.459Z,22.03
2022-08-08T20:10:57.290Z,21.97
2022-08-08T20:14:31.363Z,21.98
2022-08-08T20:16:11.142Z,21.94
2022-08-08T20:18:52.436Z,21.85
2022-08-08T20:21:22.901Z,21.81
2022-08-08T20:23:52.460Z,21.74
2022-08-08T20:26:22.766Z,21.75
2022-08-08T20:28:56.602Z,21.70
2022-08-08T20:31:23.185Z,21.66
2022-08-08T20:34:28.988Z,21.59
2022-08-08T20:36:38.549Z,21.54
2022-08-08T20:39:06.270Z,21.47
2022-08-08T20:41:34.057Z,21.38
2022-08-08T20:44:01.123Z,21.33
2022-08-08T20:46:29.403Z,21.25
2022-08-08T20:48:58.553Z,21.18
2022-08-08T20:51:31.536Z,21.14
2022-08-08T20:54:04.201Z,21.08
2022-08-08T20:57:04.626Z,21.05
2022-08-08T20:59:29.100Z,21.02
2022-08-08T21:02:07.241Z,20.96
2022-08-08T21:04:36.654Z,20.92
2022-08-08T21:07:08.024Z,20.89
2022-08-08T21:10:01.584Z,20.85
2022-08-08T21:12:24.851Z,20.74
2022-08-08T21:14:59.084Z,20.70
2022-08-08T21:17:33.547Z,20.66
2022-08-08T21:20:00.296Z,20.65
2022-08-08T21:22:30.794Z,20.62
2022-08-08T21:24:58.295Z,20.53
2022-08-08T21:28:05.153Z,20.47
2022-08-08T21:30:18.969Z,20.44
2022-08-08T21:32:51.863Z,20.44
2022-08-08T21:36:16.066Z,20.41
2022-08-08T21:38:16.551Z,20.35
2022-08-08T21:40:55.143Z,20.31
2022-08-08T21:43:23.666Z,20.27
2022-08-08T21:48:07.001Z,20.21
2022-08-08T21:48:41.613Z,20.19
2022-08-08T21:51:14.754Z,20.19
2022-08-08T21:54:33.839Z,20.18
2022-08-08T21:56:32.831Z,20.12
2022-08-08T21:59:05.681Z,20.07
2022-08-08T22:01:41.201Z,20.01
2022-08-08T22:04:11.393Z,19.96
2022-08-08T22:06:39.706Z,19.89
2022-08-08T22:09:08.980Z,19.87
2022-08-08T22:12:02.146Z,19.86
2022-08-08T22:14:26.996Z,19.79
2022-08-08T22:16:56.231Z,19.77
2022-08-08T22:19:23.732Z,19.72
2022-08-08T22:21:51.943Z,19.75
2022-08-08T22:24:23.846Z,19.70
2022-08-08T22:27:01.423Z,19.69
2022-08-08T22:29:59.352Z,19.67
2022-08-08T22:32:18.002Z,19.66
2022-08-08T22:34:50.759Z,19.60
2022-08-08T22:37:49.191Z,19.56
2022-08-08T22:40:11.809Z,19.54
2022-08-08T22:42:43.464Z,19.49
2022-08-08T22:45:14.328Z,19.46
2022-08-08T22:47:46.758Z,19.46
2022-08-08T22:50:27.445Z,19.43
2022-08-08T22:54:31.665Z,19.44
2022-08-08T22:55:59.720Z,19.42
2022-08-08T22:58:33.149Z,19.38
2022-08-08T23:01:01.594Z,19.35
2022-08-08T23:03:53.350Z,19.32
2022-08-08T23:06:21.577Z,19.31
2022-08-08T23:08:54.301Z,19.31
2022-08-08T23:11:23.073Z,19.27
2022-08-08T23:14:01.723Z,19.25
2022-08-08T23:16:40.983Z,19.24
2022-08-08T23:19:10.454Z,19.23
2022-08-08T23:21:37.829Z,19.21
2022-08-08T23:24:05.836Z,19.16
2022-08-08T23:26:34.026Z,19.14
2022-08-08T23:29:01.062Z,19.06
2022-08-08T23:31:27.707Z,19.05
2022-08-08T23:34:17.523Z,19.02
2022-08-08T23:36:40.963Z,19.00
2022-08-08T23:39:09.235Z,19.02
2022-08-08T23:41:43.564Z,19.02
2022-08-08T23:44:14.965Z,18.99
2022-08-08T23:49:02.236Z,18.96
2022-08-08T23:49:28.995Z,18.91
2022-08-08T23:52:05.355Z,18.86
2022-08-08T23:54:59.999Z,18.84
2022-08-08T23:57:38.838Z,18.79
